Time;durP1;ratioP1;P1;durP2;ratioP2;P2;SDS_P1;SDS_P2;PMS_P1;PMS_P2;Temp;Humidity;BMP_temperature;BMP_pressure;BME280_temperature;BME280_humidity;BME280_pressure;Samples;Min_cycle;Max_cycle;Signal;HPM_P1;HPM_P2
2023/11/20 00:00:40;;;;;;;6.87;1.77;;;;;;;9.12;100.00;100181.97;5022799;28;20227;-74
2023/11/20 00:03:08;;;;;;;10.03;2.30;;;;;;;9.10;100.00;100174.38;5024326;28;20210;-74
2023/11/20 00:05:34;;;;;;;7.43;1.90;;;;;;;9.11;100.00;100175.19;5023206;28;20231;-74
2023/11/20 00:08:01;;;;;;;9.10;2.40;;;;;;;9.11;100.00;100170.66;5023821;28;20234;-73
2023/11/20 00:10:27;;;;;;;11.13;2.30;;;;;;;9.12;100.00;100179.34;5017381;28;20228;-74
2023/11/20 00:12:54;;;;;;;12.87;2.73;;;;;;;9.12;100.00;100166.91;5014789;28;20204;-74
2023/11/20 00:15:20;;;;;;;8.37;1.93;;;;;;;9.14;100.00;100171.88;5020538;28;20223;-74
2023/11/20 00:17:47;;;;;;;6.37;1.60;;;;;;;9.15;100.00;100174.19;5020139;28;20203;-74
2023/11/20 00:20:15;;;;;;;6.23;1.70;;;;;;;9.16;100.00;100177.59;5018285;28;20652;-74
2023/11/20 00:22:41;;;;;;;11.83;3.10;;;;;;;9.15;100.00;100168.13;5021613;28;20192;-73
2023/11/20 00:25:08;;;;;;;7.87;1.90;;;;;;;9.16;100.00;100178.34;5024249;28;20227;-74
2023/11/20 00:27:34;;;;;;;9.67;2.47;;;;;;;9.17;100.00;100165.97;5022840;28;20208;-74
2023/11/20 00:30:01;;;;;;;7.40;1.90;;;;;;;9.18;100.00;100173.56;5021454;28;20257;-74
2023/11/20 00:32:27;;;;;;;6.63;1.90;;;;;;;9.16;100.00;100170.44;5034678;28;20291;-74
2023/11/20 00:34:53;;;;;;;9.73;2.50;;;;;;;9.18;100.00;100175.41;5032357;28;20258;-74
2023/11/20 00:37:21;;;;;;;9.70;3.13;;;;;;;9.18;100.00;100176.19;5024895;28;20208;-74
2023/11/20 00:39:47;;;;;;;8.47;2.10;;;;;;;9.19;100.00;100175.09;5024558;28;20656;-74
2023/11/20 00:42:14;;;;;;;7.77;2.23;;;;;;;9.19;100.00;100176.94;5021389;28;20455;-74
2023/11/20 00:44:40;;;;;;;6.93;3.00;;;;;;;9.19;100.00;100177.72;5034134;28;20228;-74
2023/11/20 00:47:07;;;;;;;6.83;1.70;;;;;;;9.20;100.00;100175.84;5034245;28;20961;-74
2023/11/20 00:49:33;;;;;;;10.03;1.77;;;;;;;9.21;100.00;100180.78;5020204;28;20226;-74
2023/11/20 00:52:01;;;;;;;14.30;2.57;;;;;;;9.21;100.00;100180.78;5013834;28;20200;-74
2023/11/20 00:54:29;;;;;;;10.27;2.00;;;;;;;9.22;100.00;100171.78;5018588;28;20221;-74
2023/11/20 00:56:55;;;;;;;10.73;2.13;;;;;;;9.23;100.00;100167.28;5035080;28;20210;-74
2023/11/20 00:59:22;;;;;;;6.97;1.83;;;;;;;9.22;100.00;100169.16;5035321;28;20216;-74
2023/11/20 01:01:48;;;;;;;9.13;2.00;;;;;;;9.22;100.00;100177.06;5024071;28;20218;-74
2023/11/20 01:04:15;;;;;;;8.23;1.73;;;;;;;9.22;100.00;100171.78;5031685;28;20235;-74
2023/11/20 01:06:41;;;;;;;12.90;2.37;;;;;;;9.23;100.00;100168.06;5035027;28;20223;-74
2023/11/20 01:09:08;;;;;;;15.50;2.43;;;;;;;9.24;100.00;100169.59;5018053;28;20224;-74
2023/11/20 01:11:36;;;;;;;9.43;1.97;;;;;;;9.24;100.00;100166.19;5036010;28;20195;-74
2023/11/20 01:14:05;;;;;;;11.50;2.37;;;;;;;9.24;100.00;100168.81;5031987;28;20201;-73
2023/11/20 01:16:31;;;;;;;11.47;1.90;;;;;;;9.25;100.00;100170.34;5019694;28;20232;-74
2023/11/20 01:18:57;;;;;;;5.60;1.87;;;;;;;9.25;100.00;100173.00;5019329;28;20240;-74
2023/11/20 01:21:24;;;;;;;5.93;2.10;;;;;;;9.24;100.00;100169.59;5018232;28;20678;-74
2023/11/20 01:23:51;;;;;;;12.20;2.20;;;;;;;9.25;100.00;100171.16;5017171;28;20215;-74
2023/11/20 01:26:18;;;;;;;12.80;2.20;;;;;;;9.25;100.00;100173.78;5015918;28;20308;-74
2023/11/20 01:28:46;;;;;;;10.97;2.13;;;;;;;9.26;100.00;100166.66;5016331;28;20719;-74
2023/11/20 01:31:13;;;;;;;10.60;2.50;;;;;;;9.26;100.00;100164.03;5018479;28;20814;-74
2023/11/20 01:33:40;;;;;;;13.83;2.60;;;;;;;9.26;100.00;100161.38;5024076;28;20266;-74
2023/11/20 01:36:07;;;;;;;9.60;2.43;;;;;;;9.26;100.00;100161.38;5032017;28;20243;-74
2023/11/20 01:38:34;;;;;;;14.77;2.17;;;;;;;9.25;100.00;100157.97;5019903;28;20686;-74
2023/11/20 01:41:00;;;;;;;9.37;1.93;;;;;;;9.26;100.00;100164.03;5024695;28;20673;-74
2023/11/20 01:43:27;;;;;;;8.90;2.00;;;;;;;9.26;100.00;100156.13;5034085;28;20256;-74
2023/11/20 01:46:00;;;;;;;12.20;3.17;;;;;;;9.24;100.00;100151.16;5030484;28;20244;-72
2023/11/20 01:48:26;;;;;;;10.17;2.77;;;;;;;9.25;100.00;100155.34;5033822;28;20215;-73
2023/11/20 01:50:53;;;;;;;6.77;2.17;;;;;;;9.25;100.00;100154.56;5019700;28;20226;-73
2023/11/20 01:53:19;;;;;;;11.60;2.27;;;;;;;9.25;100.00;100152.69;5019991;28;20199;-74
2023/11/20 01:55:46;;;;;;;9.07;2.93;;;;;;;9.26;100.00;100153.47;5029310;28;20246;-74
2023/11/20 01:58:13;;;;;;;8.50;2.03;;;;;;;9.23;100.00;100149.63;5034069;28;20688;-73
2023/11/20 02:00:39;;;;;;;11.63;2.20;;;;;;;9.23;100.00;100154.13;5018552;28;20193;-74
2023/11/20 02:03:07;;;;;;;10.30;2.37;;;;;;;9.22;100.00;100155.22;5033371;28;20904;-74
2023/11/20 02:05:34;;;;;;;9.00;2.30;;;;;;;9.22;100.00;100155.22;5020140;28;20212;-74
2023/11/20 02:08:01;;;;;;;7.70;2.10;;;;;;;9.20;100.00;100152.91;5032280;28;20211;-74
2023/11/20 02:10:29;;;;;;;8.53;2.00;;;;;;;9.20;100.00;100150.28;5019821;28;20212;-74
2023/11/20 02:12:58;;;;;;;10.80;2.20;;;;;;;9.20;100.00;100154.75;5035005;28;20204;-74
2023/11/20 02:15:26;;;;;;;6.13;2.00;;;;;;;9.21;100.00;100153.69;5037471;28;20243;-74
2023/11/20 02:17:52;;;;;;;15.40;2.20;;;;;;;9.20;100.00;100149.50;5016064;28;20685;-73
2023/11/20 02:20:23;;;;;;;9.60;2.63;;;;;;;9.21;100.00;100141.28;5018616;28;20196;-73
2023/11/20 02:22:49;;;;;;;9.77;2.60;;;;;;;9.21;100.00;100149.19;5038198;28;20203;-74
2023/11/20 02:25:17;;;;;;;8.57;2.33;;;;;;;9.21;100.00;100135.25;5020527;28;20227;-74
2023/11/20 02:27:53;;;;;;;12.10;3.40;;;;;;;9.20;100.00;100133.69;5032861;28;20207;-74
2023/11/20 02:30:22;;;;;;;13.53;2.20;;;;;;;9.20;100.00;100134.47;5018874;28;20220;-74
2023/11/20 02:32:48;;;;;;;9.67;2.03;;;;;;;9.20;100.00;100138.94;5036169;28;20614;-74
2023/11/20 02:35:16;;;;;;;10.60;1.87;;;;;;;9.21;100.00;100132.63;5037791;28;20257;-74
2023/11/20 02:37:43;;;;;;;17.10;2.47;;;;;;;9.20;100.00;100136.31;5036685;28;20203;-74
2023/11/20 02:40:10;;;;;;;10.90;2.63;;;;;;;9.19;100.00;100138.19;5023133;28;20196;-74
2023/11/20 02:42:37;;;;;;;9.27;2.47;;;;;;;9.19;100.00;100124.25;5032168;28;20204;-74
2023/11/20 02:45:04;;;;;;;10.23;2.10;;;;;;;9.18;100.00;100120.88;5021227;28;20216;-74
2023/11/20 02:47:32;;;;;;;6.67;1.57;;;;;;;9.17;100.00;100121.94;5037361;28;20757;-74
2023/11/20 02:49:58;;;;;;;9.20;1.87;;;;;;;9.16;100.00;100117.03;5022648;28;20339;-74
2023/11/20 02:52:25;;;;;;;8.53;2.30;;;;;;;9.16;100.00;100119.66;5021852;28;20432;-74
2023/11/20 02:54:51;;;;;;;9.90;1.97;;;;;;;9.14;100.00;100117.34;5019400;28;20632;-74
2023/11/20 02:57:18;;;;;;;5.73;2.27;;;;;;;9.14;100.00;100113.94;5023077;28;20204;-74
2023/11/20 02:59:44;;;;;;;6.80;1.67;;;;;;;9.13;100.00;100115.81;5040558;28;20208;-74
2023/11/20 03:02:12;;;;;;;7.40;1.97;;;;;;;9.12;100.00;100111.63;5021331;28;20205;-74
2023/11/20 03:04:40;;;;;;;7.50;1.60;;;;;;;9.11;100.00;100110.06;5027373;28;20603;-74
2023/11/20 03:07:07;;;;;;;6.30;1.80;;;;;;;9.11;100.00;100107.44;5023199;28;20207;-74
2023/11/20 03:09:33;;;;;;;5.27;1.60;;;;;;;9.11;100.00;100106.69;5021611;28;20661;-73
2023/11/20 03:11:59;;;;;;;12.83;5.30;;;;;;;9.09;100.00;100100.97;5044453;28;20202;-74
2023/11/20 03:14:26;;;;;;;7.57;2.00;;;;;;;9.10;100.00;100099.88;5022848;28;20205;-73
2023/11/20 03:16:52;;;;;;;6.87;1.80;;;;;;;9.09;100.00;100101.75;5017063;28;20275;-74
2023/11/20 03:19:18;;;;;;;13.27;2.50;;;;;;;9.09;100.00;100103.59;5022820;28;20200;-74
2023/11/20 03:21:46;;;;;;;11.83;2.37;;;;;;;9.08;100.00;100097.56;5022000;28;20222;-74
2023/11/20 03:24:13;;;;;;;10.73;2.67;;;;;;;9.07;100.00;100090.75;5038744;28;20259;-74
2023/11/20 03:26:39;;;;;;;8.43;2.00;;;;;;;9.07;100.00;100090.75;5034673;28;20211;-74
2023/11/20 03:29:06;;;;;;;10.47;2.13;;;;;;;9.07;100.00;100097.91;5036574;28;20214;-73
2023/11/20 03:31:37;;;;;;;9.00;2.33;;;;;;;9.08;100.00;100099.44;5027322;28;20575;-73
2023/11/20 03:34:04;;;;;;;9.20;2.10;;;;;;;9.06;100.00;100097.13;5022615;28;20746;-74
2023/11/20 03:36:32;;;;;;;8.50;1.77;;;;;;;9.07;100.00;100097.91;5016142;28;20216;-74
2023/11/20 03:39:00;;;;;;;7.47;1.63;;;;;;;9.05;100.00;100087.69;5022027;28;20628;-73
2023/11/20 03:41:27;;;;;;;6.23;1.83;;;;;;;9.08;100.00;100094.16;5039393;28;20196;-74
2023/11/20 03:43:53;;;;;;;5.90;1.50;;;;;;;9.07;100.00;100082.84;5024258;28;20548;-74
2023/11/20 03:46:20;;;;;;;7.33;1.87;;;;;;;9.07;100.00;100077.59;5021874;28;20213;-74
2023/11/20 03:48:46;;;;;;;5.23;1.77;;;;;;;9.07;100.00;100074.94;5022171;28;20270;-74
2023/11/20 03:51:16;;;;;;;8.73;1.83;;;;;;;9.07;100.00;100072.31;5022638;28;20579;-74
2023/11/20 03:53:42;;;;;;;5.60;1.83;;;;;;;9.07;100.00;100072.31;5040462;28;20295;-74
2023/11/20 03:56:12;;;;;;;6.90;2.20;;;;;;;9.08;100.00;100065.97;5021835;28;20327;-74
2023/11/20 03:58:40;;;;;;;7.87;1.87;;;;;;;9.08;100.00;100071.25;5019033;28;20208;-74
2023/11/20 04:01:06;;;;;;;4.93;1.50;;;;;;;9.08;100.00;100060.72;5020458;28;20226;-74
2023/11/20 04:03:34;;;;;;;2.50;1.40;;;;;;;9.08;100.00;100059.94;5020703;28;20198;-73
2023/11/20 04:06:00;;;;;;;8.43;1.93;;;;;;;9.07;100.00;100061.78;5020742;28;20227;-74
2023/11/20 04:08:27;;;;;;;7.00;2.00;;;;;;;9.06;100.00;100052.34;5020289;28;20869;-73
2023/11/20 04:10:53;;;;;;;5.83;1.60;;;;;;;9.07;100.00;100053.13;5024883;28;20677;-73
2023/11/20 04:13:21;;;;;;;8.57;2.23;;;;;;;9.06;100.00;100054.97;5020208;28;20580;-73
2023/11/20 04:15:48;;;;;;;4.27;1.53;;;;;;;9.07;100.00;100055.75;5016973;28;20265;-73
2023/11/20 04:18:14;;;;;;;6.07;2.20;;;;;;;9.06;100.00;100054.22;5017869;28;20212;-74
2023/11/20 04:20:41;;;;;;;8.17;1.87;;;;;;;9.05;100.00;100053.44;5018871;28;20195;-74
2023/11/20 04:23:07;;;;;;;8.63;1.73;;;;;;;9.05;100.00;100053.44;5033677;28;20220;-74
2023/11/20 04:25:33;;;;;;;4.77;1.90;;;;;;;9.04;100.00;100038.75;5019795;28;20216;-72
2023/11/20 04:28:00;;;;;;;4.80;1.73;;;;;;;9.04;100.00;100043.22;5021616;28;20203;-74
2023/11/20 04:30:28;;;;;;;9.67;2.33;;;;;;;9.04;100.00;100044.00;5023338;28;20212;-74
2023/11/20 04:32:54;;;;;;;5.23;1.90;;;;;;;9.04;100.00;100038.75;5017848;28;20292;-74
2023/11/20 04:35:20;;;;;;;6.00;1.73;;;;;;;9.04;100.00;100032.69;5020741;28;20224;-73
2023/11/20 04:37:47;;;;;;;4.50;1.50;;;;;;;9.04;100.00;100036.13;5018115;28;20197;-73
2023/11/20 04:40:13;;;;;;;3.87;1.70;;;;;;;9.04;100.00;100037.97;5018900;28;20295;-73
2023/11/20 04:42:40;;;;;;;7.30;2.07;;;;;;;9.05;100.00;100029.75;5020850;28;20210;-74
2023/11/20 04:45:07;;;;;;;5.53;1.77;;;;;;;9.05;100.00;100031.59;5022534;28;20230;-74
2023/11/20 04:47:36;;;;;;;5.27;1.53;;;;;;;9.06;100.00;100023.38;5025634;28;20216;-74
2023/11/20 04:50:02;;;;;;;2.87;1.50;;;;;;;9.06;100.00;100023.38;5020000;28;20208;-73
2023/11/20 04:52:28;;;;;;;3.07;1.73;;;;;;;9.07;100.00;100018.88;5019346;28;20204;-74
2023/11/20 04:54:55;;;;;;;4.17;1.60;;;;;;;9.07;100.00;100027.53;5018557;28;20303;-74
2023/11/20 04:57:22;;;;;;;4.77;2.07;;;;;;;9.06;100.00;100026.00;5016229;28;20196;-73
2023/11/20 04:59:48;;;;;;;5.53;1.70;;;;;;;9.07;100.00;100024.91;5014317;28;20201;-73
2023/11/20 05:02:15;;;;;;;10.10;1.83;;;;;;;9.07;100.00;100030.19;5018000;28;20196;-75
2023/11/20 05:04:42;;;;;;;2.60;1.70;;;;;;;9.07;100.00;100026.78;5023452;28;20241;-73
2023/11/20 05:07:09;;;;;;;7.97;1.80;;;;;;;9.07;100.00;100024.91;5015898;28;20673;-74
2023/11/20 05:09:35;;;;;;;2.83;1.73;;;;;;;9.08;100.00;100017.78;5023006;28;20207;-74
2023/11/20 05:12:03;;;;;;;5.33;1.67;;;;;;;9.07;100.00;100019.63;5021702;28;20216;-74
2023/11/20 05:14:29;;;;;;;4.93;1.70;;;;;;;9.07;100.00;100014.38;5015461;28;20203;-74
2023/11/20 05:16:56;;;;;;;4.43;1.77;;;;;;;9.07;100.00;100014.38;5023369;28;20207;-73
2023/11/20 05:19:22;;;;;;;6.87;1.67;;;;;;;9.07;100.00;100009.09;5022917;28;20192;-74
2023/11/20 05:21:50;;;;;;;3.10;1.77;;;;;;;9.07;100.00;100014.38;5020075;28;20208;-74
2023/11/20 05:24:16;;;;;;;6.97;1.70;;;;;;;9.08;100.00;100015.94;5022414;28;20604;-73
2023/11/20 05:26:43;;;;;;;3.20;1.63;;;;;;;9.08;100.00;100013.31;5024019;28;20196;-74
2023/11/20 05:29:11;;;;;;;3.17;1.53;;;;;;;9.09;100.00;100014.06;5018796;28;20203;-73
2023/11/20 05:31:38;;;;;;;2.37;1.20;;;;;;;9.08;100.00;100005.41;5022333;28;20628;-73
2023/11/20 05:34:04;;;;;;;4.60;1.73;;;;;;;9.11;100.00;100009.25;5020656;28;20748;-74
2023/11/20 05:36:31;;;;;;;2.10;1.50;;;;;;;9.10;100.00;100010.31;5022284;28;20223;-74
2023/11/20 05:38:58;;;;;;;7.23;2.00;;;;;;;9.10;100.00;100012.94;5018844;28;20206;-73
2023/11/20 05:41:25;;;;;;;4.17;1.50;;;;;;;9.11;100.00;100010.00;5022325;28;20557;-74
2023/11/20 05:43:51;;;;;;;2.77;1.60;;;;;;;9.11;100.00;100006.59;5027445;28;20253;-74
2023/11/20 05:46:17;;;;;;;4.23;1.70;;;;;;;9.11;100.00;100012.63;5019449;28;20222;-73
2023/11/20 05:48:44;;;;;;;4.47;1.60;;;;;;;9.12;100.00;100006.25;5019682;28;20200;-74
2023/11/20 05:51:10;;;;;;;5.40;1.63;;;;;;;9.13;100.00;99996.50;5017371;28;20581;-73
2023/11/20 05:53:36;;;;;;;5.80;1.53;;;;;;;9.15;100.00;99997.72;5024052;28;20692;-73
2023/11/20 05:56:10;;;;;;;4.00;1.50;;;;;;;9.14;100.00;99993.53;5019743;28;20744;-74
2023/11/20 05:58:36;;;;;;;4.17;1.40;;;;;;;9.15;100.00;99995.06;5023197;28;20688;-74
2023/11/20 06:01:03;;;;;;;3.40;1.50;;;;;;;9.15;100.00;99995.06;5022950;28;20194;-73
2023/11/20 06:03:30;;;;;;;6.77;1.70;;;;;;;9.16;100.00;100004.50;5021367;28;20200;-73
2023/11/20 06:05:56;;;;;;;4.07;1.67;;;;;;;9.18;100.00;99998.91;5018139;28;20219;-73
2023/11/20 06:08:23;;;;;;;4.53;1.60;;;;;;;9.18;100.00;100001.56;5022678;28;20200;-73
2023/11/20 06:10:49;;;;;;;5.37;1.70;;;;;;;9.19;100.00;99995.97;5020244;28;20262;-73
2023/11/20 06:13:18;;;;;;;5.83;2.10;;;;;;;9.20;100.00;99984.31;5017892;28;20204;-73
2023/11/20 06:15:45;;;;;;;5.33;1.90;;;;;;;9.21;100.00;99983.22;5019410;28;20216;-74
2023/11/20 06:18:11;;;;;;;3.60;1.80;;;;;;;9.21;100.00;99993.00;5022790;28;20211;-73
2023/11/20 06:20:37;;;;;;;3.57;2.60;;;;;;;9.22;100.00;99984.00;5025996;28;20193;-74
2023/11/20 06:23:04;;;;;;;5.63;2.03;;;;;;;9.21;100.00;99993.75;5031613;28;20559;-73
2023/11/20 06:25:30;;;;;;;4.20;2.17;;;;;;;9.23;100.00;99998.69;5026691;28;20226;-73
2023/11/20 06:27:56;;;;;;;7.13;4.03;;;;;;;9.23;100.00;100002.13;5031686;28;20211;-73
2023/11/20 06:30:24;;;;;;;6.83;1.90;;;;;;;9.25;100.00;100004.41;5024675;28;20199;-73
2023/11/20 06:32:50;;;;;;;2.53;1.87;;;;;;;9.26;100.00;99987.50;5030754;28;20286;-73
2023/11/20 06:35:17;;;;;;;5.13;1.70;;;;;;;9.26;100.00;99990.16;5028133;28;20253;-73
2023/11/20 06:37:43;;;;;;;4.83;1.93;;;;;;;9.27;100.00;99989.78;5044856;28;20235;-73
2023/11/20 06:40:11;;;;;;;5.10;1.77;;;;;;;9.28;100.00;100004.53;5025189;28;20212;-73
2023/11/20 06:42:37;;;;;;;4.27;1.40;;;;;;;9.28;100.00;99996.63;5029199;28;20215;-74
2023/11/20 06:45:05;;;;;;;2.40;1.70;;;;;;;9.29;100.00;99990.25;5029961;28;20228;-74
2023/11/20 06:47:33;;;;;;;8.93;2.10;;;;;;;9.31;100.00;99989.94;5028515;28;21223;-73
2023/11/20 06:49:59;;;;;;;5.80;1.63;;;;;;;9.32;100.00;100013.28;5028727;28;20192;-73
2023/11/20 06:52:25;;;;;;;7.50;2.30;;;;;;;9.33;100.00;100019.34;5027947;28;20227;-74
2023/11/20 06:54:51;;;;;;;4.33;1.87;;;;;;;9.33;100.00;100012.22;5027312;28;20303;-73
2023/11/20 06:57:18;;;;;;;5.53;1.83;;;;;;;9.34;100.00;100005.84;5028008;28;20215;-73
2023/11/20 06:59:45;;;;;;;7.07;2.10;;;;;;;9.36;100.00;100000.22;5025635;28;20227;-74
2023/11/20 07:02:11;;;;;;;4.47;1.83;;;;;;;9.36;100.00;100005.47;5023173;28;20200;-74
2023/11/20 07:04:44;;;;;;;7.63;2.03;;;;;;;9.37;100.00;99986.72;5024447;28;20705;-73
2023/11/20 07:07:11;;;;;;;4.50;1.93;;;;;;;9.39;100.00;99996.94;5027504;28;20223;-73
2023/11/20 07:09:37;;;;;;;5.73;1.83;;;;;;;9.41;100.00;100003.41;5029517;28;20192;-73
2023/11/20 07:12:04;;;;;;;5.10;1.77;;;;;;;9.44;100.00;100001.97;5025340;28;20214;-73
2023/11/20 07:14:30;;;;;;;2.73;1.47;;;;;;;9.49;100.00;100005.16;5030531;28;20203;-73
2023/11/20 07:16:57;;;;;;;4.30;1.97;;;;;;;9.52;100.00;100001.09;5032222;28;20199;-74
2023/11/20 07:19:23;;;;;;;8.63;2.17;;;;;;;9.55;100.00;100005.69;5042096;28;20196;-74
2023/11/20 07:21:51;;;;;;;10.40;2.00;;;;;;;9.59;100.00;100003.94;5027234;28;20200;-73
2023/11/20 07:24:17;;;;;;;8.03;1.77;;;;;;;9.61;100.00;100010.41;5026731;28;20207;-74
2023/11/20 07:26:43;;;;;;;6.53;1.60;;;;;;;9.65;100.00;100016.56;5027458;28;20277;-74
2023/11/20 07:29:10;;;;;;;6.27;1.87;;;;;;;9.68;100.00;100021.16;5025812;28;20254;-73
2023/11/20 07:31:37;;;;;;;4.33;1.37;;;;;;;9.69;100.00;100021.94;5030914;28;20212;-74
2023/11/20 07:34:04;;;;;;;7.23;1.80;;;;;;;9.71;100.00;100025.00;5029161;28;20199;-74
2023/11/20 07:36:31;;;;;;;5.20;1.63;;;;;;;9.72;100.00;100029.94;5030013;28;20216;-73
2023/11/20 07:38:58;;;;;;;5.20;1.60;;;;;;;9.74;100.00;100027.72;5028165;28;20193;-73
2023/11/20 07:41:25;;;;;;;6.17;1.60;;;;;;;9.75;100.00;100025.88;5029535;28;20190;-74
2023/11/20 07:43:51;;;;;;;3.30;1.53;;;;;;;9.77;100.00;100034.22;5031037;28;20576;-74
2023/11/20 07:46:18;;;;;;;5.80;1.70;;;;;;;9.78;100.00;100041.03;5023092;28;20224;-74
2023/11/20 07:48:44;;;;;;;5.27;1.73;;;;;;;9.79;100.00;100037.28;5022307;28;20221;-74
2023/11/20 07:51:10;;;;;;;2.53;1.53;;;;;;;9.79;100.00;100032.03;5029703;28;20212;-74
2023/11/20 07:53:37;;;;;;;4.70;1.73;;;;;;;9.81;100.00;100040.34;5027897;28;20201;-74
2023/11/20 07:56:05;;;;;;;5.57;1.67;;;;;;;9.82;100.00;100039.25;5024084;28;20217;-74
2023/11/20 07:58:32;;;;;;;5.70;1.87;;;;;;;9.83;100.00;100044.19;5027631;28;20207;-74
2023/11/20 08:00:58;;;;;;;6.10;1.60;;;;;;;9.84;100.00;100040.47;5029095;28;20218;-73
2023/11/20 08:03:25;;;;;;;3.90;1.80;;;;;;;9.84;100.00;100045.72;5018552;28;20192;-74
2023/11/20 08:05:51;;;;;;;4.30;1.80;;;;;;;9.84;100.00;100042.34;5024685;28;20684;-74
2023/11/20 08:08:18;;;;;;;7.10;1.70;;;;;;;9.85;100.00;100047.28;5020854;28;20201;-74
2023/11/20 08:10:44;;;;;;;6.33;1.77;;;;;;;9.84;100.00;100053.63;5021988;28;20211;-74
2023/11/20 08:13:12;;;;;;;4.17;1.60;;;;;;;9.85;100.00;100049.16;5026653;28;20224;-74
2023/11/20 08:15:38;;;;;;;3.90;1.60;;;;;;;9.82;100.00;100045.31;5027246;28;20223;-74
2023/11/20 08:18:06;;;;;;;3.63;1.60;;;;;;;9.85;100.00;100051.78;5030350;28;20199;-74
2023/11/20 08:20:32;;;;;;;6.47;2.33;;;;;;;9.86;100.00;100048.03;5030447;28;20290;-74
2023/11/20 08:22:59;;;;;;;2.70;1.30;;;;;;;9.86;100.00;100042.75;5021050;28;20716;-73
2023/11/20 08:25:25;;;;;;;6.07;1.80;;;;;;;9.86;100.00;100053.31;5026678;28;20667;-73
2023/11/20 08:27:52;;;;;;;6.00;1.63;;;;;;;9.86;100.00;100048.03;5027970;28;20199;-73
2023/11/20 08:30:19;;;;;;;6.33;2.40;;;;;;;9.86;100.00;100040.91;5029774;28;20232;-73
2023/11/20 08:32:46;;;;;;;6.30;2.00;;;;;;;9.87;100.00;100039.03;5028730;28;20224;-74
2023/11/20 08:35:12;;;;;;;6.00;1.80;;;;;;;9.87;100.00;100041.66;5022217;28;20221;-74
2023/11/20 08:37:39;;;;;;;6.27;1.70;;;;;;;9.88;100.00;100036.06;5027123;28;20706;-74
2023/11/20 08:40:08;;;;;;;2.10;1.40;;;;;;;9.89;100.00;100034.19;5027528;28;20223;-73
2023/11/20 08:42:35;;;;;;;5.67;1.60;;;;;;;9.89;100.00;100040.22;5020751;28;20201;-73
2023/11/20 08:45:01;;;;;;;2.77;1.27;;;;;;;9.91;100.00;100031.97;5025702;28;20223;-73
2023/11/20 08:47:29;;;;;;;4.50;3.17;;;;;;;9.94;100.00;100036.59;5025161;28;20208;-73
2023/11/20 08:49:56;;;;;;;3.47;2.97;;;;;;;9.95;100.00;100040.78;5027001;28;20197;-74
2023/11/20 08:52:22;;;;;;;6.43;3.33;;;;;;;9.98;100.00;100037.44;5028478;28;20208;-74
2023/11/20 08:54:48;;;;;;;4.83;2.30;;;;;;;10.00;100.00;100043.94;5024526;28;20243;-74
2023/11/20 08:57:15;;;;;;;5.20;2.70;;;;;;;10.02;100.00;100046.25;5026601;28;20204;-73
2023/11/20 08:59:41;;;;;;;6.43;3.77;;;;;;;10.04;100.00;100054.63;5026347;28;20206;-74
2023/11/20 09:02:08;;;;;;;5.70;2.30;;;;;;;10.03;100.00;100048.56;5026608;28;20200;-74
2023/11/20 09:04:35;;;;;;;3.97;2.10;;;;;;;10.05;100.00;100051.63;5027047;28;20284;-74
2023/11/20 09:07:02;;;;;;;3.40;2.80;;;;;;;10.06;100.00;100058.47;5027522;28;20194;-74
2023/11/20 09:09:29;;;;;;;7.00;2.80;;;;;;;10.07;100.00;100059.22;5024012;28;20204;-74
2023/11/20 09:11:55;;;;;;;6.17;2.33;;;;;;;10.06;100.00;100066.38;5025376;28;20236;-74
2023/11/20 09:14:22;;;;;;;3.37;1.83;;;;;;;10.07;100.00;100064.50;5023238;28;20207;-74
2023/11/20 09:16:48;;;;;;;2.13;1.50;;;;;;;10.06;100.00;100055.84;5024190;28;20942;-74
2023/11/20 09:19:15;;;;;;;4.50;1.50;;;;;;;10.06;100.00;100050.56;5027498;28;20664;-74
2023/11/20 09:21:43;;;;;;;3.57;1.40;;;;;;;10.07;100.00;100060.00;5027373;28;20206;-73
2023/11/20 09:24:09;;;;;;;1.87;1.53;;;;;;;10.07;100.00;100057.38;5027161;28;20202;-74
2023/11/20 09:26:36;;;;;;;3.37;1.70;;;;;;;10.08;100.00;100045.72;5025628;28;20237;-74
2023/11/20 09:29:06;;;;;;;6.60;4.33;;;;;;;10.10;100.00;100050.66;5027309;28;20316;-73
2023/11/20 09:31:34;;;;;;;2.30;1.47;;;;;;;10.10;100.00;100043.50;5026783;28;20280;-73
2023/11/20 09:34:01;;;;;;;5.10;1.80;;;;;;;10.10;100.00;100046.13;5029005;28;20205;-73
2023/11/20 09:36:27;;;;;;;6.07;1.70;;;;;;;10.12;100.00;100046.59;5024852;28;20223;-74
2023/11/20 09:38:55;;;;;;;4.77;1.77;;;;;;;10.12;100.00;100043.94;5020586;28;20227;-74
2023/11/20 09:41:21;;;;;;;5.57;2.83;;;;;;;10.14;100.00;100040.97;5028020;28;20560;-73
2023/11/20 09:43:49;;;;;;;2.30;1.40;;;;;;;10.16;100.00;100044.81;5025741;28;20216;-73
2023/11/20 09:46:16;;;;;;;1.83;1.27;;;;;;;10.17;100.00;100043.72;5024300;28;20226;-73
2023/11/20 09:48:44;;;;;;;2.40;1.50;;;;;;;10.19;100.00;100043.38;5024528;28;20207;-73
2023/11/20 09:51:12;;;;;;;5.33;1.80;;;;;;;10.21;100.00;100049.06;5026213;28;20583;-73
2023/11/20 09:53:39;;;;;;;2.63;1.40;;;;;;;10.22;100.00;100040.84;5026466;28;20223;-73
2023/11/20 09:56:10;;;;;;;2.50;1.33;;;;;;;10.25;100.00;100052.59;5031174;28;20300;-74
2023/11/20 09:58:36;;;;;;;1.37;1.27;;;;;;;10.26;100.00;100054.88;5024178;28;20211;-74
2023/11/20 10:01:05;;;;;;;3.90;1.20;;;;;;;10.26;100.00;100052.22;5026323;28;20873;-74
2023/11/20 10:03:32;;;;;;;4.50;1.47;;;;;;;10.29;100.00;100050.78;5026940;28;20737;-73
2023/11/20 10:06:01;;;;;;;3.53;1.20;;;;;;;10.30;100.00;100049.72;5027174;28;20255;-74
2023/11/20 10:08:30;;;;;;;3.13;1.53;;;;;;;10.31;100.00;100051.25;5026896;28;20233;-73
2023/11/20 10:10:58;;;;;;;2.63;1.40;;;;;;;10.33;100.00;100047.16;5027057;28;20198;-73
2023/11/20 10:13:27;;;;;;;1.43;1.33;;;;;;;10.38;100.00;100051.44;5027976;28;20217;-74
2023/11/20 10:15:54;;;;;;;3.20;1.50;;;;;;;10.41;100.00;100046.25;5025802;28;20858;-74
2023/11/20 10:18:21;;;;;;;8.47;6.77;;;;;;;10.45;100.00;100046.34;5022862;28;20213;-74
2023/11/20 10:20:48;;;;;;;3.77;2.97;;;;;;;10.46;100.00;100046.00;5027572;28;20196;-74
2023/11/20 10:23:15;;;;;;;3.47;2.23;;;;;;;10.50;100.00;100049.50;5024625;28;20217;-74
2023/11/20 10:25:43;;;;;;;2.57;1.70;;;;;;;10.53;100.00;100048.84;5023873;28;20295;-74
2023/11/20 10:28:10;;;;;;;4.00;2.10;;;;;;;10.56;100.00;100053.44;5021437;28;20202;-73
2023/11/20 10:30:38;;;;;;;3.40;3.10;;;;;;;10.59;100.00;100052.00;5043358;28;20300;-74
2023/11/20 10:33:05;;;;;;;4.37;1.90;;;;;;;10.59;100.00;100041.44;5024670;28;20210;-73
2023/11/20 10:35:31;;;;;;;2.10;1.90;;;;;;;10.64;100.00;100041.97;5023366;28;20217;-74
2023/11/20 10:37:59;;;;;;;2.60;1.77;;;;;;;10.68;100.00;100042.84;5030064;28;20206;-73
2023/11/20 10:40:25;;;;;;;2.43;1.53;;;;;;;10.68;100.00;100040.19;5021991;28;20200;-73
2023/11/20 10:42:52;;;;;;;2.73;2.03;;;;;;;10.70;100.00;100048.53;5022475;28;20200;-73
2023/11/20 10:45:19;;;;;;;1.63;1.53;;;;;;;10.70;100.00;100045.09;5023271;28;20699;-73
2023/11/20 10:47:48;;;;;;;3.30;2.17;;;;;;;10.72;100.00;100038.38;5027182;28;20202;-73
2023/11/20 10:50:17;;;;;;;2.30;1.40;;;;;;;10.72;100.00;100046.31;5027576;28;20565;-74
2023/11/20 10:52:44;;;;;;;1.73;1.43;;;;;;;10.71;100.00;100042.13;5025185;28;20211;-74
2023/11/20 10:55:12;;;;;;;1.63;1.40;;;;;;;10.70;100.00;100045.09;5042237;28;20235;-73
2023/11/20 10:57:39;;;;;;;7.17;1.43;;;;;;;10.70;100.00;100039.81;5026203;28;20555;-74
2023/11/20 11:00:10;;;;;;;1.10;1.10;;;;;;;10.72;100.00;100045.56;5026174;28;20210;-73
2023/11/20 11:02:38;;;;;;;1.70;1.33;;;;;;;10.71;100.00;100038.75;5025123;28;20198;-74
2023/11/20 11:05:08;;;;;;;1.20;1.10;;;;;;;10.70;100.00;100037.19;5021674;28;20706;-75
2023/11/20 11:07:39;;;;;;;2.77;1.20;;;;;;;10.71;100.00;100033.47;5022738;28;20199;-73
2023/11/20 11:10:10;;;;;;;3.50;1.37;;;;;;;10.70;100.00;100034.53;5025119;28;20199;-74
2023/11/20 11:12:41;;;;;;;2.20;1.50;;;;;;;10.69;100.00;100030.38;5024253;28;20222;-74
2023/11/20 11:15:09;;;;;;;1.27;1.20;;;;;;;10.69;100.00;100035.66;5026021;28;20218;-74
2023/11/20 11:17:44;;;;;;;1.40;1.30;;;;;;;10.68;100.00;100027.00;5026968;28;20690;-74
2023/11/20 11:20:14;;;;;;;1.77;1.57;;;;;;;10.67;100.00;100036.00;5023426;28;20233;-74